sensor_id;sensor_type;location;lat;lon;timestamp;P1;durP1;ratioP1;P2;durP2;ratioP2
71869;SDS011;59739;47.696;11.746;2022-07-06T00:00:39;3.70;;;2.78;;
71869;SDS011;59739;47.696;11.746;2022-07-06T00:03:05;3.35;;;3.05;;
71869;SDS011;59739;47.696;11.746;2022-07-06T00:05:31;3.25;;;2.97;;
71869;SDS011;59739;47.696;11.746;2022-07-06T00:07:57;3.30;;;3.00;;
71869;SDS011;59739;47.696;11.746;2022-07-06T00:10:23;3.38;;;3.08;;
71869;SDS011;59739;47.696;11.746;2022-07-06T00:12:49;3.83;;;3.53;;
71869;SDS011;59739;47.696;11.746;2022-07-06T00:15:15;3.30;;;3.05;;
71869;SDS011;59739;47.696;11.746;2022-07-06T00:17:41;3.45;;;2.97;;
71869;SDS011;59739;47.696;11.746;2022-07-06T00:20:07;3.17;;;2.97;;
71869;SDS011;59739;47.696;11.746;2022-07-06T00:22:33;4.60;;;3.60;;
71869;SDS011;59739;47.696;11.746;2022-07-06T00:24:59;3.30;;;3.03;;
71869;SDS011;59739;47.696;11.746;2022-07-06T00:27:25;4.10;;;3.30;;
71869;SDS011;59739;47.696;11.746;2022-07-06T00:29:51;3.75;;;3.00;;
71869;SDS011;59739;47.696;11.746;2022-07-06T00:32:17;3.60;;;3.20;;
71869;SDS011;59739;47.696;11.746;2022-07-06T00:34:43;3.42;;;3.13;;
71869;SDS011;59739;47.696;11.746;2022-07-06T00:37:09;3.70;;;3.00;;
71869;SDS011;59739;47.696;11.746;2022-07-06T00:39:35;3.55;;;3.22;;
71869;SDS011;59739;47.696;11.746;2022-07-06T00:42:01;3.85;;;3.20;;
71869;SDS011;59739;47.696;11.746;2022-07-06T00:44:27;4.05;;;3.00;;
71869;SDS011;59739;47.696;11.746;2022-07-06T00:46:54;3.40;;;3.10;;
71869;SDS011;59739;47.696;11.746;2022-07-06T00:49:19;4.75;;;3.30;;
71869;SDS011;59739;47.696;11.746;2022-07-06T00:52:04;3.60;;;3.00;;
71869;SDS011;59739;47.696;11.746;2022-07-06T00:54:31;3.90;;;3.20;;
71869;SDS011;59739;47.696;11.746;2022-07-06T00:56:58;3.60;;;3.25;;
71869;SDS011;59739;47.696;11.746;2022-07-06T00:59:24;3.50;;;3.20;;
71869;SDS011;59739;47.696;11.746;2022-07-06T01:01:52;3.45;;;3.15;;
71869;SDS011;59739;47.696;11.746;2022-07-06T01:04:18;4.18;;;3.20;;
71869;SDS011;59739;47.696;11.746;2022-07-06T01:06:44;4.35;;;3.53;;
71869;SDS011;59739;47.696;11.746;2022-07-06T01:09:12;4.18;;;3.38;;
71869;SDS011;59739;47.696;11.746;2022-07-06T01:11:38;3.67;;;3.08;;
71869;SDS011;59739;47.696;11.746;2022-07-06T01:14:04;3.65;;;3.35;;
71869;SDS011;59739;47.696;11.746;2022-07-06T01:16:32;3.67;;;3.25;;
71869;SDS011;59739;47.696;11.746;2022-07-06T01:18:58;4.93;;;3.08;;
71869;SDS011;59739;47.696;11.746;2022-07-06T01:21:24;3.20;;;3.00;;
71869;SDS011;59739;47.696;11.746;2022-07-06T01:23:50;3.42;;;3.13;;
71869;SDS011;59739;47.696;11.746;2022-07-06T01:26:17;3.15;;;2.72;;
71869;SDS011;59739;47.696;11.746;2022-07-06T01:28:49;3.00;;;2.60;;
71869;SDS011;59739;47.696;11.746;2022-07-06T01:31:21;6.65;;;3.08;;
71869;SDS011;59739;47.696;11.746;2022-07-06T01:33:50;3.10;;;2.75;;
71869;SDS011;59739;47.696;11.746;2022-07-06T01:36:19;2.92;;;2.33;;
71869;SDS011;59739;47.696;11.746;2022-07-06T01:38:50;3.50;;;2.72;;
71869;SDS011;59739;47.696;11.746;2022-07-06T01:41:18;3.47;;;2.25;;
71869;SDS011;59739;47.696;11.746;2022-07-06T01:43:44;3.33;;;2.88;;
71869;SDS011;59739;47.696;11.746;2022-07-06T01:46:11;2.65;;;2.38;;
71869;SDS011;59739;47.696;11.746;2022-07-06T01:48:38;3.00;;;2.67;;
71869;SDS011;59739;47.696;11.746;2022-07-06T01:51:04;2.95;;;2.70;;
71869;SDS011;59739;47.696;11.746;2022-07-06T01:53:32;3.58;;;2.92;;
71869;SDS011;59739;47.696;11.746;2022-07-06T01:55:58;2.83;;;2.63;;
71869;SDS011;59739;47.696;11.746;2022-07-06T01:58:25;5.88;;;2.92;;
71869;SDS011;59739;47.696;11.746;2022-07-06T02:00:52;2.70;;;2.50;;
71869;SDS011;59739;47.696;11.746;2022-07-06T02:03:17;2.80;;;2.60;;
71869;SDS011;59739;47.696;11.746;2022-07-06T02:05:43;2.67;;;2.45;;
71869;SDS011;59739;47.696;11.746;2022-07-06T02:08:09;3.05;;;2.53;;
71869;SDS011;59739;47.696;11.746;2022-07-06T02:10:35;2.80;;;2.53;;
71869;SDS011;59739;47.696;11.746;2022-07-06T02:13:01;2.53;;;2.30;;
71869;SDS011;59739;47.696;11.746;2022-07-06T02:15:28;2.70;;;2.50;;
71869;SDS011;59739;47.696;11.746;2022-07-06T02:17:54;3.15;;;2.90;;
71869;SDS011;59739;47.696;11.746;2022-07-06T02:20:23;2.95;;;2.70;;
71869;SDS011;59739;47.696;11.746;2022-07-06T02:22:49;2.80;;;2.58;;
71869;SDS011;59739;47.696;11.746;2022-07-06T02:25:15;2.88;;;2.58;;
71869;SDS011;59739;47.696;11.746;2022-07-06T02:27:42;3.63;;;2.50;;
71869;SDS011;59739;47.696;11.746;2022-07-06T02:30:09;2.58;;;2.38;;
71869;SDS011;59739;47.696;11.746;2022-07-06T02:32:36;2.80;;;2.50;;
71869;SDS011;59739;47.696;11.746;2022-07-06T02:35:02;2.92;;;2.72;;
71869;SDS011;59739;47.696;11.746;2022-07-06T02:37:28;2.70;;;2.50;;
71869;SDS011;59739;47.696;11.746;2022-07-06T02:39:55;3.33;;;2.80;;
71869;SDS011;59739;47.696;11.746;2022-07-06T02:42:21;5.65;;;2.80;;
71869;SDS011;59739;47.696;11.746;2022-07-06T02:44:47;2.70;;;2.50;;
71869;SDS011;59739;47.696;11.746;2022-07-06T02:47:14;2.60;;;2.40;;
71869;SDS011;59739;47.696;11.746;2022-07-06T02:49:40;2.55;;;2.35;;
71869;SDS011;59739;47.696;11.746;2022-07-06T02:52:06;2.75;;;2.47;;
71869;SDS011;59739;47.696;11.746;2022-07-06T02:54:32;2.90;;;2.55;;
71869;SDS011;59739;47.696;11.746;2022-07-06T02:56:58;2.63;;;2.40;;
71869;SDS011;59739;47.696;11.746;2022-07-06T02:59:24;5.47;;;2.22;;
71869;SDS011;59739;47.696;11.746;2022-07-06T03:01:51;2.25;;;2.05;;
71869;SDS011;59739;47.696;11.746;2022-07-06T03:04:17;2.65;;;2.33;;
71869;SDS011;59739;47.696;11.746;2022-07-06T03:06:44;5.53;;;2.55;;
71869;SDS011;59739;47.696;11.746;2022-07-06T03:09:10;3.25;;;2.60;;
71869;SDS011;59739;47.696;11.746;2022-07-06T03:11:37;2.80;;;2.60;;
71869;SDS011;59739;47.696;11.746;2022-07-06T03:14:04;3.40;;;2.47;;
71869;SDS011;59739;47.696;11.746;2022-07-06T03:16:33;3.20;;;2.50;;
71869;SDS011;59739;47.696;11.746;2022-07-06T03:18:59;2.83;;;2.63;;
71869;SDS011;59739;47.696;11.746;2022-07-06T03:21:25;2.50;;;2.30;;
71869;SDS011;59739;47.696;11.746;2022-07-06T03:23:51;5.35;;;2.78;;
71869;SDS011;59739;47.696;11.746;2022-07-06T03:26:17;4.05;;;2.58;;
71869;SDS011;59739;47.696;11.746;2022-07-06T03:28:44;3.28;;;2.30;;
71869;SDS011;59739;47.696;11.746;2022-07-06T03:31:10;3.15;;;2.40;;
71869;SDS011;59739;47.696;11.746;2022-07-06T03:33:37;3.25;;;2.35;;
71869;SDS011;59739;47.696;11.746;2022-07-06T03:36:03;2.95;;;2.25;;
71869;SDS011;59739;47.696;11.746;2022-07-06T03:38:30;2.75;;;2.17;;
71869;SDS011;59739;47.696;11.746;2022-07-06T03:40:57;2.75;;;2.55;;
71869;SDS011;59739;47.696;11.746;2022-07-06T03:43:23;3.55;;;2.50;;
71869;SDS011;59739;47.696;11.746;2022-07-06T03:45:49;2.75;;;2.55;;
71869;SDS011;59739;47.696;11.746;2022-07-06T03:48:15;2.95;;;2.63;;
71869;SDS011;59739;47.696;11.746;2022-07-06T03:50:41;2.53;;;2.33;;
71869;SDS011;59739;47.696;11.746;2022-07-06T03:53:08;2.95;;;2.75;;
71869;SDS011;59739;47.696;11.746;2022-07-06T03:55:34;3.35;;;2.50;;
71869;SDS011;59739;47.696;11.746;2022-07-06T03:58:04;3.83;;;2.67;;
71869;SDS011;59739;47.696;11.746;2022-07-06T04:00:31;2.75;;;2.55;;
71869;SDS011;59739;47.696;11.746;2022-07-06T04:03:02;2.53;;;2.33;;
71869;SDS011;59739;47.696;11.746;2022-07-06T04:05:33;2.55;;;2.35;;
71869;SDS011;59739;47.696;11.746;2022-07-06T04:07:59;3.15;;;2.72;;
71869;SDS011;59739;47.696;11.746;2022-07-06T04:10:32;2.88;;;2.67;;
71869;SDS011;59739;47.696;11.746;2022-07-06T04:12:59;3.35;;;2.55;;
71869;SDS011;59739;47.696;11.746;2022-07-06T04:15:26;2.80;;;2.60;;
71869;SDS011;59739;47.696;11.746;2022-07-06T04:17:52;3.38;;;2.95;;
71869;SDS011;59739;47.696;11.746;2022-07-06T04:20:20;3.40;;;2.65;;
71869;SDS011;59739;47.696;11.746;2022-07-06T04:22:49;4.00;;;2.80;;
71869;SDS011;59739;47.696;11.746;2022-07-06T04:25:15;2.97;;;2.60;;
71869;SDS011;59739;47.696;11.746;2022-07-06T04:27:41;3.17;;;2.88;;
71869;SDS011;59739;47.696;11.746;2022-07-06T04:30:08;2.97;;;2.70;;
71869;SDS011;59739;47.696;11.746;2022-07-06T04:32:36;3.15;;;2.40;;
71869;SDS011;59739;47.696;11.746;2022-07-06T04:35:03;3.88;;;2.88;;
71869;SDS011;59739;47.696;11.746;2022-07-06T04:37:30;2.42;;;2.28;;
71869;SDS011;59739;47.696;11.746;2022-07-06T04:39:56;2.95;;;2.33;;
71869;SDS011;59739;47.696;11.746;2022-07-06T04:42:23;3.65;;;2.67;;
71869;SDS011;59739;47.696;11.746;2022-07-06T04:44:49;2.88;;;2.67;;
71869;SDS011;59739;47.696;11.746;2022-07-06T04:47:19;3.00;;;2.72;;
71869;SDS011;59739;47.696;11.746;2022-07-06T04:49:45;3.90;;;3.03;;
71869;SDS011;59739;47.696;11.746;2022-07-06T04:52:13;2.40;;;2.20;;
71869;SDS011;59739;47.696;11.746;2022-07-06T04:54:39;2.85;;;2.42;;
71869;SDS011;59739;47.696;11.746;2022-07-06T04:57:05;2.95;;;2.75;;
71869;SDS011;59739;47.696;11.746;2022-07-06T04:59:31;3.25;;;2.40;;
71869;SDS011;59739;47.696;11.746;2022-07-06T05:01:58;3.30;;;2.53;;
71869;SDS011;59739;47.696;11.746;2022-07-06T05:04:24;3.13;;;2.75;;
71869;SDS011;59739;47.696;11.746;2022-07-06T05:06:50;2.75;;;2.55;;
71869;SDS011;59739;47.696;11.746;2022-07-06T05:09:16;3.58;;;2.55;;
71869;SDS011;59739;47.696;11.746;2022-07-06T05:11:44;2.90;;;2.70;;
71869;SDS011;59739;47.696;11.746;2022-07-06T05:14:11;4.63;;;2.70;;
71869;SDS011;59739;47.696;11.746;2022-07-06T05:16:37;2.72;;;2.50;;
71869;SDS011;59739;47.696;11.746;2022-07-06T05:19:03;5.88;;;2.60;;
71869;SDS011;59739;47.696;11.746;2022-07-06T05:21:29;2.80;;;2.60;;
71869;SDS011;59739;47.696;11.746;2022-07-06T05:23:55;2.53;;;2.35;;
71869;SDS011;59739;47.696;11.746;2022-07-06T05:26:21;3.03;;;2.60;;
71869;SDS011;59739;47.696;11.746;2022-07-06T05:28:47;2.20;;;2.10;;
71869;SDS011;59739;47.696;11.746;2022-07-06T05:31:17;5.85;;;2.67;;
71869;SDS011;59739;47.696;11.746;2022-07-06T05:33:43;2.85;;;2.65;;
71869;SDS011;59739;47.696;11.746;2022-07-06T05:36:09;4.18;;;2.63;;
71869;SDS011;59739;47.696;11.746;2022-07-06T05:38:35;3.13;;;2.45;;
71869;SDS011;59739;47.696;11.746;2022-07-06T05:41:01;6.18;;;3.47;;
71869;SDS011;59739;47.696;11.746;2022-07-06T05:43:27;2.80;;;2.60;;
71869;SDS011;59739;47.696;11.746;2022-07-06T05:45:55;3.90;;;2.80;;
71869;SDS011;59739;47.696;11.746;2022-07-06T05:48:24;3.33;;;2.38;;
71869;SDS011;59739;47.696;11.746;2022-07-06T05:51:09;2.85;;;2.60;;
71869;SDS011;59739;47.696;11.746;2022-07-06T05:53:35;2.50;;;2.30;;
71869;SDS011;59739;47.696;11.746;2022-07-06T05:56:01;2.53;;;2.33;;
71869;SDS011;59739;47.696;11.746;2022-07-06T05:58:29;4.75;;;2.25;;
71869;SDS011;59739;47.696;11.746;2022-07-06T06:00:57;2.30;;;2.20;;
71869;SDS011;59739;47.696;11.746;2022-07-06T06:03:23;2.60;;;2.40;;
71869;SDS011;59739;47.696;11.746;2022-07-06T06:05:50;2.85;;;2.10;;
71869;SDS011;59739;47.696;11.746;2022-07-06T06:08:17;3.00;;;2.38;;
71869;SDS011;59739;47.696;11.746;2022-07-06T06:10:44;2.30;;;2.10;;
71869;SDS011;59739;47.696;11.746;2022-07-06T06:13:13;6.85;;;2.30;;
71869;SDS011;59739;47.696;11.746;2022-07-06T06:15:39;2.40;;;2.20;;
71869;SDS011;59739;47.696;11.746;2022-07-06T06:18:06;2.80;;;2.00;;
71869;SDS011;59739;47.696;11.746;2022-07-06T06:20:31;3.33;;;2.28;;
71869;SDS011;59739;47.696;11.746;2022-07-06T06:22:58;3.40;;;2.22;;
71869;SDS011;59739;47.696;11.746;2022-07-06T06:25:35;2.65;;;2.20;;
71869;SDS011;59739;47.696;11.746;2022-07-06T06:28:04;2.80;;;2.30;;
71869;SDS011;59739;47.696;11.746;2022-07-06T06:30:32;3.40;;;2.10;;
71869;SDS011;59739;47.696;11.746;2022-07-06T06:33:09;2.10;;;1.90;;
71869;SDS011;59739;47.696;11.746;2022-07-06T06:35:42;3.63;;;2.28;;
71869;SDS011;59739;47.696;11.746;2022-07-06T06:38:11;2.58;;;1.95;;
71869;SDS011;59739;47.696;11.746;2022-07-06T06:40:38;2.08;;;1.83;;
71869;SDS011;59739;47.696;11.746;2022-07-06T06:43:04;4.28;;;2.20;;
71869;SDS011;59739;47.696;11.746;2022-07-06T06:45:34;2.78;;;2.13;;
71869;SDS011;59739;47.696;11.746;2022-07-06T06:48:00;2.10;;;1.90;;
71869;SDS011;59739;47.696;11.746;2022-07-06T06:50:26;3.03;;;2.05;;
71869;SDS011;59739;47.696;11.746;2022-07-06T06:52:53;2.28;;;2.08;;
71869;SDS011;59739;47.696;11.746;2022-07-06T06:55:19;2.05;;;1.85;;
71869;SDS011;59739;47.696;11.746;2022-07-06T06:57:45;4.80;;;2.03;;
71869;SDS011;59739;47.696;11.746;2022-07-06T07:00:11;4.22;;;2.20;;
71869;SDS011;59739;47.696;11.746;2022-07-06T07:02:38;4.53;;;1.83;;
71869;SDS011;59739;47.696;11.746;2022-07-06T07:05:04;2.58;;;1.95;;
71869;SDS011;59739;47.696;11.746;2022-07-06T07:07:31;2.15;;;1.90;;
71869;SDS011;59739;47.696;11.746;2022-07-06T07:09:58;1.80;;;1.70;;
71869;SDS011;59739;47.696;11.746;2022-07-06T07:12:24;2.10;;;2.00;;
71869;SDS011;59739;47.696;11.746;2022-07-06T07:14:50;3.83;;;1.95;;
71869;SDS011;59739;47.696;11.746;2022-07-06T07:17:16;2.30;;;1.70;;
71869;SDS011;59739;47.696;11.746;2022-07-06T07:19:42;1.70;;;1.60;;
71869;SDS011;59739;47.696;11.746;2022-07-06T07:22:08;2.95;;;1.67;;
71869;SDS011;59739;47.696;11.746;2022-07-06T07:24:33;1.60;;;1.50;;
71869;SDS011;59739;47.696;11.746;2022-07-06T07:26:59;1.40;;;1.30;;
71869;SDS011;59739;47.696;11.746;2022-07-06T07:29:26;2.85;;;1.60;;
71869;SDS011;59739;47.696;11.746;2022-07-06T07:31:52;3.55;;;1.75;;
71869;SDS011;59739;47.696;11.746;2022-07-06T07:34:17;2.33;;;1.63;;
71869;SDS011;59739;47.696;11.746;2022-07-06T07:36:43;1.80;;;1.50;;
71869;SDS011;59739;47.696;11.746;2022-07-06T07:39:09;1.85;;;1.60;;
71869;SDS011;59739;47.696;11.746;2022-07-06T07:41:35;2.25;;;1.60;;
71869;SDS011;59739;47.696;11.746;2022-07-06T07:44:01;1.67;;;1.58;;
71869;SDS011;59739;47.696;11.746;2022-07-06T07:46:27;1.48;;;1.38;;
71869;SDS011;59739;47.696;11.746;2022-07-06T07:48:53;1.73;;;1.40;;
71869;SDS011;59739;47.696;11.746;2022-07-06T07:51:19;2.35;;;1.65;;
71869;SDS011;59739;47.696;11.746;2022-07-06T07:53:45;1.70;;;1.58;;
71869;SDS011;59739;47.696;11.746;2022-07-06T07:56:11;4.20;;;1.83;;
71869;SDS011;59739;47.696;11.746;2022-07-06T07:58:37;1.52;;;1.42;;
71869;SDS011;59739;47.696;11.746;2022-07-06T08:01:04;2.70;;;1.67;;
71869;SDS011;59739;47.696;11.746;2022-07-06T08:03:30;1.60;;;1.50;;
71869;SDS011;59739;47.696;11.746;2022-07-06T08:05:58;1.60;;;1.50;;
71869;SDS011;59739;47.696;11.746;2022-07-06T08:08:24;1.65;;;1.40;;
71869;SDS011;59739;47.696;11.746;2022-07-06T08:10:50;1.58;;;1.40;;
71869;SDS011;59739;47.696;11.746;2022-07-06T08:13:16;2.92;;;1.58;;
71869;SDS011;59739;47.696;11.746;2022-07-06T08:15:42;1.40;;;1.30;;
71869;SDS011;59739;47.696;11.746;2022-07-06T08:18:08;1.50;;;1.40;;
71869;SDS011;59739;47.696;11.746;2022-07-06T08:20:35;1.48;;;1.38;;
71869;SDS011;59739;47.696;11.746;2022-07-06T08:23:01;1.65;;;1.55;;
71869;SDS011;59739;47.696;11.746;2022-07-06T08:25:28;2.00;;;1.58;;
71869;SDS011;59739;47.696;11.746;2022-07-06T08:27:55;1.50;;;1.40;;
71869;SDS011;59739;47.696;11.746;2022-07-06T08:30:21;1.65;;;1.52;;
71869;SDS011;59739;47.696;11.746;2022-07-06T08:32:48;2.55;;;1.30;;
71869;SDS011;59739;47.696;11.746;2022-07-06T08:35:14;2.83;;;1.42;;
71869;SDS011;59739;47.696;11.746;2022-07-06T08:37:40;1.55;;;1.40;;
71869;SDS011;59739;47.696;11.746;2022-07-06T08:40:06;1.50;;;1.40;;
71869;SDS011;59739;47.696;11.746;2022-07-06T08:42:34;1.40;;;1.30;;
71869;SDS011;59739;47.696;11.746;2022-07-06T08:45:02;2.10;;;1.48;;
71869;SDS011;59739;47.696;11.746;2022-07-06T08:47:32;1.42;;;1.33;;
71869;SDS011;59739;47.696;11.746;2022-07-06T08:50:02;1.90;;;1.40;;
71869;SDS011;59739;47.696;11.746;2022-07-06T08:52:29;1.50;;;1.27;;
71869;SDS011;59739;47.696;11.746;2022-07-06T08:54:55;2.40;;;1.30;;
71869;SDS011;59739;47.696;11.746;2022-07-06T08:57:22;1.83;;;1.35;;
71869;SDS011;59739;47.696;11.746;2022-07-06T08:59:49;2.92;;;1.50;;
71869;SDS011;59739;47.696;11.746;2022-07-06T09:02:15;1.58;;;1.30;;
71869;SDS011;59739;47.696;11.746;2022-07-06T09:04:42;1.60;;;1.50;;
71869;SDS011;59739;47.696;11.746;2022-07-06T09:07:09;1.50;;;1.40;;
71869;SDS011;59739;47.696;11.746;2022-07-06T09:09:35;1.50;;;1.30;;
71869;SDS011;59739;47.696;11.746;2022-07-06T09:12:02;2.63;;;1.50;;
71869;SDS011;59739;47.696;11.746;2022-07-06T09:14:29;3.03;;;1.88;;
71869;SDS011;59739;47.696;11.746;2022-07-06T09:17:03;4.00;;;2.20;;
71869;SDS011;59739;47.696;11.746;2022-07-06T09:19:31;1.70;;;1.60;;
71869;SDS011;59739;47.696;11.746;2022-07-06T09:22:01;1.77;;;1.58;;
71869;SDS011;59739;47.696;11.746;2022-07-06T09:24:28;2.25;;;2.05;;
71869;SDS011;59739;47.696;11.746;2022-07-06T09:26:55;1.65;;;1.55;;
71869;SDS011;59739;47.696;11.746;2022-07-06T09:29:26;2.00;;;1.90;;
71869;SDS011;59739;47.696;11.746;2022-07-06T09:32:00;2.80;;;1.70;;
71869;SDS011;59739;47.696;11.746;2022-07-06T09:37:08;2.95;;;1.98;;
71869;SDS011;59739;47.696;11.746;2022-07-06T09:39:34;4.35;;;1.63;;
71869;SDS011;59739;47.696;11.746;2022-07-06T09:42:01;2.17;;;1.80;;
71869;SDS011;59739;47.696;11.746;2022-07-06T09:44:35;1.80;;;1.70;;
71869;SDS011;59739;47.696;11.746;2022-07-06T09:47:04;3.53;;;1.88;;
71869;SDS011;59739;47.696;11.746;2022-07-06T09:49:36;1.85;;;1.67;;
71869;SDS011;59739;47.696;11.746;2022-07-06T09:52:07;2.88;;;1.90;;
71869;SDS011;59739;47.696;11.746;2022-07-06T09:54:35;2.67;;;1.80;;
71869;SDS011;59739;47.696;11.746;2022-07-06T09:57:04;1.95;;;1.63;;
71869;SDS011;59739;47.696;11.746;2022-07-06T09:59:31;2.15;;;1.90;;
71869;SDS011;59739;47.696;11.746;2022-07-06T10:02:00;1.77;;;1.67;;
71869;SDS011;59739;47.696;11.746;2022-07-06T10:04:29;2.75;;;1.40;;
71869;SDS011;59739;47.696;11.746;2022-07-06T10:06:56;2.00;;;1.77;;
71869;SDS011;59739;47.696;11.746;2022-07-06T10:09:24;1.85;;;1.60;;
71869;SDS011;59739;47.696;11.746;2022-07-06T10:11:54;2.47;;;1.60;;
71869;SDS011;59739;47.696;11.746;2022-07-06T10:14:23;3.00;;;1.65;;
71869;SDS011;59739;47.696;11.746;2022-07-06T10:16:52;4.28;;;1.60;;
71869;SDS011;59739;47.696;11.746;2022-07-06T10:19:22;2.30;;;1.30;;
71869;SDS011;59739;47.696;11.746;2022-07-06T10:21:49;2.38;;;1.60;;
71869;SDS011;59739;47.696;11.746;2022-07-06T10:24:19;1.98;;;1.45;;
71869;SDS011;59739;47.696;11.746;2022-07-06T10:26:46;2.67;;;1.60;;
71869;SDS011;59739;47.696;11.746;2022-07-06T10:29:13;2.38;;;1.50;;
71869;SDS011;59739;47.696;11.746;2022-07-06T10:31:40;1.70;;;1.60;;
71869;SDS011;59739;47.696;11.746;2022-07-06T10:36:39;3.13;;;1.63;;
71869;SDS011;59739;47.696;11.746;2022-07-06T10:39:07;2.13;;;1.70;;
71869;SDS011;59739;47.696;11.746;2022-07-06T10:41:57;3.45;;;1.67;;
71869;SDS011;59739;47.696;11.746;2022-07-06T10:44:25;1.77;;;1.67;;
71869;SDS011;59739;47.696;11.746;2022-07-06T10:46:53;2.22;;;1.50;;
71869;SDS011;59739;47.696;11.746;2022-07-06T10:49:21;2.03;;;1.83;;
71869;SDS011;59739;47.696;11.746;2022-07-06T10:51:49;3.30;;;1.90;;
71869;SDS011;59739;47.696;11.746;2022-07-06T10:54:16;2.10;;;1.65;;
71869;SDS011;59739;47.696;11.746;2022-07-06T10:56:49;3.15;;;1.70;;
71869;SDS011;59739;47.696;11.746;2022-07-06T10:59:17;1.90;;;1.70;;
71869;SDS011;59739;47.696;11.746;2022-07-06T11:04:43;4.10;;;1.70;;
71869;SDS011;59739;47.696;11.746;2022-07-06T11:07:14;3.92;;;1.80;;
71869;SDS011;59739;47.696;11.746;2022-07-06T11:09:53;4.63;;;1.83;;
71869;SDS011;59739;47.696;11.746;2022-07-06T11:12:21;1.90;;;1.60;;
71869;SDS011;59739;47.696;11.746;2022-07-06T11:14:48;1.85;;;1.30;;
71869;SDS011;59739;47.696;11.746;2022-07-06T11:17:16;3.53;;;1.48;;
71869;SDS011;59739;47.696;11.746;2022-07-06T11:19:56;2.03;;;1.70;;
71869;SDS011;59739;47.696;11.746;2022-07-06T11:22:33;2.50;;;1.70;;
71869;SDS011;59739;47.696;11.746;2022-07-06T11:25:02;1.55;;;1.45;;
71869;SDS011;59739;47.696;11.746;2022-07-06T11:27:29;1.60;;;1.50;;
71869;SDS011;59739;47.696;11.746;2022-07-06T11:29:56;2.25;;;1.65;;
71869;SDS011;59739;47.696;11.746;2022-07-06T11:32:23;2.95;;;1.70;;
71869;SDS011;59739;47.696;11.746;2022-07-06T11:34:50;3.60;;;1.65;;
71869;SDS011;59739;47.696;11.746;2022-07-06T11:37:16;2.67;;;1.60;;
71869;SDS011;59739;47.696;11.746;2022-07-06T11:39:43;2.58;;;1.60;;
71869;SDS011;59739;47.696;11.746;2022-07-06T11:42:13;2.05;;;1.75;;
71869;SDS011;59739;47.696;11.746;2022-07-06T11:44:43;1.52;;;1.40;;
71869;SDS011;59739;47.696;11.746;2022-07-06T11:47:11;1.83;;;1.70;;
71869;SDS011;59739;47.696;11.746;2022-07-06T11:49:38;1.95;;;1.60;;
71869;SDS011;59739;47.696;11.746;2022-07-06T11:52:09;2.28;;;1.88;;
71869;SDS011;59739;47.696;11.746;2022-07-06T11:54:37;5.43;;;1.67;;
71869;SDS011;59739;47.696;11.746;2022-07-06T11:57:07;4.40;;;1.65;;
71869;SDS011;59739;47.696;11.746;2022-07-06T11:59:36;3.35;;;1.70;;
71869;SDS011;59739;47.696;11.746;2022-07-06T12:02:04;3.60;;;1.60;;
71869;SDS011;59739;47.696;11.746;2022-07-06T12:04:36;2.83;;;1.50;;
71869;SDS011;59739;47.696;11.746;2022-07-06T12:07:06;1.70;;;1.60;;
71869;SDS011;59739;47.696;11.746;2022-07-06T12:09:36;2.50;;;1.45;;
71869;SDS011;59739;47.696;11.746;2022-07-06T12:12:04;2.97;;;1.65;;
71869;SDS011;59739;47.696;11.746;2022-07-06T12:14:32;2.90;;;1.63;;
71869;SDS011;59739;47.696;11.746;2022-07-06T12:17:03;4.00;;;1.80;;
71869;SDS011;59739;47.696;11.746;2022-07-06T12:19:39;1.83;;;1.73;;
71869;SDS011;59739;47.696;11.746;2022-07-06T12:22:07;1.77;;;1.52;;
71869;SDS011;59739;47.696;11.746;2022-07-06T12:24:34;2.30;;;1.50;;
71869;SDS011;59739;47.696;11.746;2022-07-06T12:27:10;1.90;;;1.67;;
71869;SDS011;59739;47.696;11.746;2022-07-06T12:29:41;1.63;;;1.52;;
71869;SDS011;59739;47.696;11.746;2022-07-06T12:32:13;3.38;;;1.73;;
71869;SDS011;59739;47.696;11.746;2022-07-06T12:35:07;2.72;;;1.73;;
71869;SDS011;59739;47.696;11.746;2022-07-06T12:37:34;2.42;;;1.75;;
71869;SDS011;59739;47.696;11.746;2022-07-06T12:40:01;3.72;;;1.60;;
71869;SDS011;59739;47.696;11.746;2022-07-06T12:42:47;2.08;;;1.42;;
71869;SDS011;59739;47.696;11.746;2022-07-06T12:45:14;3.00;;;1.65;;
71869;SDS011;59739;47.696;11.746;2022-07-06T12:47:40;2.08;;;1.70;;
71869;SDS011;59739;47.696;11.746;2022-07-06T12:50:21;4.07;;;1.90;;
71869;SDS011;59739;47.696;11.746;2022-07-06T12:53:01;2.10;;;1.90;;
71869;SDS011;59739;47.696;11.746;2022-07-06T12:55:29;2.50;;;1.92;;
71869;SDS011;59739;47.696;11.746;2022-07-06T12:57:55;2.08;;;1.73;;
71869;SDS011;59739;47.696;11.746;2022-07-06T13:00:23;2.53;;;1.60;;
71869;SDS011;59739;47.696;11.746;2022-07-06T13:02:51;2.22;;;1.60;;
71869;SDS011;59739;47.696;11.746;2022-07-06T13:05:23;2.20;;;1.92;;
71869;SDS011;59739;47.696;11.746;2022-07-06T13:07:53;2.75;;;1.88;;
71869;SDS011;59739;47.696;11.746;2022-07-06T13:10:21;3.40;;;1.90;;
71869;SDS011;59739;47.696;11.746;2022-07-06T13:12:48;2.72;;;1.70;;
71869;SDS011;59739;47.696;11.746;2022-07-06T13:15:17;2.28;;;1.48;;
71869;SDS011;59739;47.696;11.746;2022-07-06T13:17:47;3.35;;;1.80;;
71869;SDS011;59739;47.696;11.746;2022-07-06T13:20:13;3.63;;;1.80;;
71869;SDS011;59739;47.696;11.746;2022-07-06T13:22:41;4.50;;;1.77;;
71869;SDS011;59739;47.696;11.746;2022-07-06T13:25:07;2.25;;;1.75;;
71869;SDS011;59739;47.696;11.746;2022-07-06T13:27:34;3.65;;;1.70;;
71869;SDS011;59739;47.696;11.746;2022-07-06T13:30:00;3.80;;;1.85;;
71869;SDS011;59739;47.696;11.746;2022-07-06T13:32:27;5.03;;;2.03;;
71869;SDS011;59739;47.696;11.746;2022-07-06T13:34:53;3.85;;;1.88;;
71869;SDS011;59739;47.696;11.746;2022-07-06T13:37:21;1.90;;;1.73;;
71869;SDS011;59739;47.696;11.746;2022-07-06T13:39:48;2.95;;;1.73;;
71869;SDS011;59739;47.696;11.746;2022-07-06T13:42:13;1.90;;;1.70;;
71869;SDS011;59739;47.696;11.746;2022-07-06T13:44:39;3.28;;;2.00;;
71869;SDS011;59739;47.696;11.746;2022-07-06T13:47:05;2.88;;;2.20;;
71869;SDS011;59739;47.696;11.746;2022-07-06T13:49:31;3.22;;;1.70;;
71869;SDS011;59739;47.696;11.746;2022-07-06T13:51:57;1.88;;;1.75;;
71869;SDS011;59739;47.696;11.746;2022-07-06T13:54:36;2.03;;;1.80;;
71869;SDS011;59739;47.696;11.746;2022-07-06T13:57:03;3.35;;;1.83;;
71869;SDS011;59739;47.696;11.746;2022-07-06T13:59:30;2.67;;;2.00;;
71869;SDS011;59739;47.696;11.746;2022-07-06T14:01:56;2.00;;;1.90;;
71869;SDS011;59739;47.696;11.746;2022-07-06T14:04:23;2.15;;;2.00;;
71869;SDS011;59739;47.696;11.746;2022-07-06T14:06:49;2.33;;;1.88;;
71869;SDS011;59739;47.696;11.746;2022-07-06T14:09:15;2.53;;;2.20;;
71869;SDS011;59739;47.696;11.746;2022-07-06T14:11:41;2.38;;;2.10;;
71869;SDS011;59739;47.696;11.746;2022-07-06T14:14:07;2.45;;;1.92;;
71869;SDS011;59739;47.696;11.746;2022-07-06T14:16:33;2.13;;;1.83;;
71869;SDS011;59739;47.696;11.746;2022-07-06T14:19:00;2.70;;;1.90;;
71869;SDS011;59739;47.696;11.746;2022-07-06T14:21:27;2.97;;;1.65;;
71869;SDS011;59739;47.696;11.746;2022-07-06T14:23:53;2.30;;;1.80;;
71869;SDS011;59739;47.696;11.746;2022-07-06T14:26:19;3.20;;;2.28;;
71869;SDS011;59739;47.696;11.746;2022-07-06T14:28:46;4.25;;;2.30;;
71869;SDS011;59739;47.696;11.746;2022-07-06T14:31:12;2.17;;;1.98;;
71869;SDS011;59739;47.696;11.746;2022-07-06T14:33:38;3.00;;;2.10;;
71869;SDS011;59739;47.696;11.746;2022-07-06T14:36:08;2.20;;;2.00;;
71869;SDS011;59739;47.696;11.746;2022-07-06T14:38:34;2.15;;;1.95;;
71869;SDS011;59739;47.696;11.746;2022-07-06T14:41:00;2.50;;;2.13;;
71869;SDS011;59739;47.696;11.746;2022-07-06T14:43:32;2.50;;;2.05;;